Time;durP1;ratioP1;P1;durP2;ratioP2;P2;SDS_P1;SDS_P2;PMS_P1;PMS_P2;Temp;Humidity;BMP_temperature;BMP_pressure;BME280_temperature;BME280_humidity;BME280_pressure;Samples;Min_cycle;Max_cycle;Signal;HPM_P1;HPM_P2
2022/08/21 00:01:32;;;;;;;0.20;0.20;;;16.90;99.90;;;;;;5032478;28;20122;-88
2022/08/21 00:04:03;;;;;;;0.10;0.10;;;16.90;99.90;;;;;;5013165;28;20140;-86
2022/08/21 00:06:28;;;;;;;0.20;0.20;;;16.80;99.90;;;;;;5029030;28;20125;-87
2022/08/21 00:08:54;;;;;;;0.10;0.10;;;16.80;99.90;;;;;;5031564;28;20117;-87
2022/08/21 00:11:20;;;;;;;0.20;0.20;;;16.80;99.90;;;;;;5013230;28;20042;-87
2022/08/21 00:13:46;;;;;;;0.20;0.20;;;16.80;99.90;;;;;;5013433;28;20048;-87
2022/08/21 00:16:12;;;;;;;0.10;0.10;;;16.80;99.90;;;;;;5011488;28;20041;-86
2022/08/21 00:18:38;;;;;;;0.13;0.13;;;16.80;99.90;;;;;;5012308;28;20103;-87
2022/08/21 00:21:04;;;;;;;0.10;0.10;;;16.70;99.90;;;;;;5029783;28;20038;-87
2022/08/21 00:23:30;;;;;;;0.10;0.10;;;16.70;99.90;;;;;;5031646;28;20812;-86
2022/08/21 00:25:55;;;;;;;0.13;0.13;;;16.60;99.90;;;;;;5012581;28;20128;-87
2022/08/21 00:28:21;;;;;;;0.10;0.10;;;16.70;99.90;;;;;;5034253;28;20049;-85
2022/08/21 00:30:46;;;;;;;0.20;0.20;;;16.60;99.90;;;;;;5037486;28;20045;-88
2022/08/21 00:33:13;;;;;;;0.20;0.20;;;16.60;99.90;;;;;;5032887;28;20048;-87
2022/08/21 00:35:41;;;;;;;0.20;0.20;;;16.60;99.90;;;;;;5032985;28;20104;-87
2022/08/21 00:38:08;;;;;;;0.20;0.20;;;16.60;99.90;;;;;;5041411;28;20061;-85
2022/08/21 00:40:45;;;;;;;0.20;0.20;;;16.50;99.90;;;;;;5028410;28;20046;-87
2022/08/21 00:43:14;;;;;;;0.10;0.10;;;16.50;99.90;;;;;;5016563;28;20056;-87
2022/08/21 00:45:40;;;;;;;0.10;0.10;;;16.50;99.90;;;;;;5011211;28;20416;-87
2022/08/21 00:48:06;;;;;;;0.20;0.20;;;16.50;99.90;;;;;;5016797;28;20048;-86
2022/08/21 00:50:34;;;;;;;0.20;0.20;;;16.50;99.90;;;;;;5017162;28;20095;-88
2022/08/21 00:53:04;;;;;;;0.10;0.10;;;16.40;99.90;;;;;;5035904;28;20103;-88
2022/08/21 00:55:31;;;;;;;0.20;0.20;;;16.40;99.90;;;;;;5017631;28;20401;-87
2022/08/21 00:58:00;;;;;;;0.20;0.20;;;16.40;99.90;;;;;;5019010;28;20132;-87
2022/08/21 01:00:33;;;;;;;0.20;0.20;;;16.40;99.90;;;;;;5031323;28;20049;-87
2022/08/21 01:03:00;;;;;;;0.10;0.10;;;16.40;99.90;;;;;;5016996;28;20559;-87
2022/08/21 01:05:26;;;;;;;0.20;0.20;;;16.40;99.90;;;;;;5016539;28;20048;-87
2022/08/21 01:07:56;;;;;;;0.13;0.13;;;16.30;99.90;;;;;;5036202;28;20042;-88
2022/08/21 01:10:23;;;;;;;0.10;0.10;;;16.30;99.90;;;;;;5033768;28;20049;-87
2022/08/21 01:12:51;;;;;;;0.10;0.10;;;16.30;99.90;;;;;;5017554;28;20115;-88
2022/08/21 01:15:18;;;;;;;0.10;0.10;;;16.30;99.90;;;;;;5035666;28;20400;-87
2022/08/21 01:17:43;;;;;;;0.20;0.20;;;16.30;99.90;;;;;;5016289;28;20054;-87
2022/08/21 01:20:11;;;;;;;0.20;0.20;;;16.30;99.90;;;;;;5016257;28;20041;-87
2022/08/21 01:22:37;;;;;;;0.13;0.13;;;16.30;99.90;;;;;;5035558;28;20515;-87
2022/08/21 01:25:08;;;;;;;0.20;0.20;;;16.20;99.90;;;;;;5016071;28;20045;-87
2022/08/21 01:27:34;;;;;;;0.10;0.10;;;16.20;99.90;;;;;;5002459;28;20073;-87
2022/08/21 01:30:08;;;;;;;0.15;0.15;;;16.20;99.90;;;;;;5008178;28;20439;-85
2022/08/21 01:32:34;;;;;;;0.10;0.10;;;16.20;99.90;;;;;;5035716;28;20041;-86
2022/08/21 01:34:59;;;;;;;0.20;0.20;;;16.20;99.90;;;;;;5013459;28;20048;-86
2022/08/21 01:37:25;;;;;;;0.17;0.17;;;16.10;99.90;;;;;;5017682;28;20064;-86
2022/08/21 01:39:51;;;;;;;0.20;0.20;;;16.20;99.90;;;;;;5033484;28;20045;-87
2022/08/21 01:42:17;;;;;;;0.20;0.20;;;16.10;99.90;;;;;;5016789;28;20045;-86
2022/08/21 01:44:43;;;;;;;0.20;0.20;;;16.10;99.90;;;;;;5033288;28;20107;-86
2022/08/21 01:47:11;;;;;;;0.20;0.20;;;16.10;99.90;;;;;;5016548;28;20095;-87
2022/08/21 01:49:38;;;;;;;0.20;0.20;;;16.10;99.90;;;;;;5016201;28;20459;-86
2022/08/21 01:52:13;;;;;;;0.15;0.15;;;16.10;99.90;;;;;;5033914;28;20443;-87
2022/08/21 01:54:39;;;;;;;0.20;0.20;;;16.00;99.90;;;;;;5013583;28;20037;-86
2022/08/21 01:57:05;;;;;;;0.10;0.10;;;16.00;99.90;;;;;;5017008;28;20057;-87
2022/08/21 01:59:32;;;;;;;0.13;0.13;;;16.00;99.90;;;;;;5034493;28;20064;-86
2022/08/21 02:01:57;;;;;;;0.20;0.20;;;16.00;99.90;;;;;;5014754;28;20160;-87
2022/08/21 02:04:23;;;;;;;0.20;0.20;;;16.00;99.90;;;;;;5016058;28;20401;-87
2022/08/21 02:06:50;;;;;;;0.10;0.10;;;16.00;99.90;;;;;;5029747;28;20113;-87
2022/08/21 02:09:16;;;;;;;0.10;0.10;;;16.00;99.90;;;;;;5034547;28;20128;-85
2022/08/21 02:11:42;;;;;;;0.20;0.20;;;15.90;99.90;;;;;;5038589;28;20037;-86
2022/08/21 02:14:14;;;;;;;0.10;0.10;;;15.90;99.90;;;;;;5039950;28;20048;-86
2022/08/21 02:16:40;;;;;;;0.10;0.10;;;15.80;99.90;;;;;;5020589;28;20087;-86
2022/08/21 02:19:06;;;;;;;0.20;0.20;;;15.80;99.90;;;;;;5022641;28;20486;-87
2022/08/21 02:21:32;;;;;;;0.10;0.10;;;15.80;99.90;;;;;;5032699;28;20072;-86
2022/08/21 02:23:58;;;;;;;0.20;0.20;;;15.80;99.90;;;;;;5031958;28;20131;-86
2022/08/21 02:26:24;;;;;;;0.13;0.13;;;15.70;99.90;;;;;;5016050;28;20053;-87
2022/08/21 02:28:49;;;;;;;0.13;0.13;;;15.60;99.90;;;;;;5015839;28;20057;-87
2022/08/21 02:31:15;;;;;;;0.20;0.20;;;15.60;99.90;;;;;;5016394;28;20073;-87
2022/08/21 02:33:41;;;;;;;0.20;0.20;;;15.60;99.90;;;;;;5033201;28;20435;-87
2022/08/21 02:36:11;;;;;;;0.20;0.20;;;15.50;99.90;;;;;;5016056;28;20049;-87
2022/08/21 02:38:39;;;;;;;0.20;0.20;;;15.50;99.90;;;;;;5024994;28;20045;-87
2022/08/21 02:41:14;;;;;;;0.20;0.20;;;15.50;99.90;;;;;;5034133;28;20046;-87
2022/08/21 02:43:39;;;;;;;0.20;0.20;;;15.60;99.90;;;;;;5034371;28;20046;-86
2022/08/21 02:46:10;;;;;;;0.10;0.10;;;15.60;99.90;;;;;;5008856;28;20092;-86
2022/08/21 02:48:36;;;;;;;0.20;0.20;;;15.60;99.90;;;;;;5016707;28;20045;-88
2022/08/21 02:51:12;;;;;;;0.17;0.17;;;15.50;99.90;;;;;;5014581;28;20045;-87
2022/08/21 02:53:38;;;;;;;0.10;0.10;;;15.60;99.90;;;;;;5032973;28;20140;-86
2022/08/21 02:56:09;;;;;;;0.20;0.20;;;15.60;99.90;;;;;;5014935;28;20033;-87
2022/08/21 02:58:40;;;;;;;0.20;0.20;;;15.60;99.90;;;;;;5015560;28;20433;-87
2022/08/21 03:01:09;;;;;;;0.17;0.17;;;15.60;99.90;;;;;;5016079;28;20546;-87
2022/08/21 03:03:35;;;;;;;0.20;0.20;;;15.60;99.90;;;;;;5015288;28;20100;-87
2022/08/21 03:06:01;;;;;;;0.20;0.20;;;15.50;99.90;;;;;;5032228;28;20073;-87
2022/08/21 03:08:27;;;;;;;0.20;0.20;;;15.50;99.90;;;;;;5015696;28;20050;-87
2022/08/21 03:10:53;;;;;;;0.10;0.10;;;15.40;99.90;;;;;;5009633;28;20041;-89
2022/08/21 03:13:20;;;;;;;0.20;0.20;;;15.60;99.90;;;;;;5032666;28;20057;-87
2022/08/21 03:15:47;;;;;;;0.20;0.20;;;15.50;99.90;;;;;;5033403;28;20602;-87
2022/08/21 03:18:13;;;;;;;0.20;0.20;;;15.60;99.90;;;;;;5016038;28;20520;-86
2022/08/21 03:20:40;;;;;;;0.20;0.20;;;15.50;99.90;;;;;;5013944;28;20053;-87
2022/08/21 03:23:06;;;;;;;0.10;0.10;;;15.50;99.90;;;;;;5032914;28;20088;-87
2022/08/21 03:25:32;;;;;;;0.20;0.20;;;15.50;99.90;;;;;;5036737;28;20831;-87
2022/08/21 03:28:00;;;;;;;0.20;0.20;;;15.50;99.90;;;;;;5010682;28;20097;-86
2022/08/21 03:30:25;;;;;;;0.20;0.20;;;15.50;99.90;;;;;;5015724;28;20085;-86
2022/08/21 03:32:52;;;;;;;0.13;0.13;;;15.50;99.90;;;;;;5032594;28;20076;-87
2022/08/21 03:35:18;;;;;;;0.10;0.10;;;15.50;99.90;;;;;;5014371;28;20116;-87
2022/08/21 03:37:44;;;;;;;0.20;0.20;;;15.50;99.90;;;;;;5015604;28;20409;-86
2022/08/21 03:40:13;;;;;;;0.20;0.20;;;15.50;99.90;;;;;;5031361;28;20393;-86
2022/08/21 03:42:39;;;;;;;0.20;0.20;;;15.40;99.90;;;;;;5031506;28;20481;-87
2022/08/21 03:45:05;;;;;;;0.15;0.15;;;15.40;99.90;;;;;;5051971;28;20017;-87
2022/08/21 03:47:31;;;;;;;0.20;0.20;;;15.50;99.90;;;;;;5053843;28;20109;-87
2022/08/21 03:49:57;;;;;;;0.20;0.20;;;15.50;99.90;;;;;;5008814;28;20146;-87
2022/08/21 03:52:23;;;;;;;0.20;0.20;;;15.40;99.90;;;;;;5031480;28;20048;-86
2022/08/21 03:54:50;;;;;;;0.20;0.20;;;15.40;99.90;;;;;;5014202;28;20045;-86
2022/08/21 03:57:16;;;;;;;0.15;0.15;;;15.50;99.90;;;;;;5014413;28;20041;-85
2022/08/21 03:59:43;;;;;;;0.20;0.20;;;15.50;99.90;;;;;;5014940;28;20053;-88
2022/08/21 04:02:09;;;;;;;0.10;0.10;;;15.40;99.90;;;;;;5039330;28;20080;-87
2022/08/21 04:04:35;;;;;;;0.20;0.20;;;15.40;99.90;;;;;;5012953;28;20449;-87
2022/08/21 04:07:02;;;;;;;0.20;0.20;;;15.50;99.90;;;;;;5006769;28;20041;-88
2022/08/21 04:09:30;;;;;;;0.17;0.17;;;15.40;99.90;;;;;;5014096;28;20478;-87
2022/08/21 04:11:57;;;;;;;0.10;0.10;;;15.30;99.90;;;;;;5032292;28;20116;-87
2022/08/21 04:14:26;;;;;;;0.13;0.13;;;15.20;99.90;;;;;;5010983;28;20053;-86
2022/08/21 04:16:51;;;;;;;0.20;0.20;;;15.20;99.90;;;;;;5029539;28;20050;-87
2022/08/21 04:19:17;;;;;;;0.10;0.10;;;15.30;99.90;;;;;;5032909;28;20045;-86
2022/08/21 04:21:43;;;;;;;0.20;0.20;;;15.30;99.90;;;;;;5014699;28;20077;-86
2022/08/21 04:24:10;;;;;;;0.20;0.20;;;15.30;99.90;;;;;;5013699;28;20048;-86
2022/08/21 04:26:39;;;;;;;0.20;0.20;;;15.20;99.90;;;;;;5030835;28;20405;-87
2022/08/21 04:29:06;;;;;;;0.20;0.20;;;15.20;99.90;;;;;;5014845;28;20096;-87
2022/08/21 04:31:33;;;;;;;0.10;0.10;;;15.30;99.90;;;;;;5011097;28;20060;-87
2022/08/21 04:33:59;;;;;;;0.10;0.10;;;15.20;99.90;;;;;;5015088;28;20053;-88
2022/08/21 04:36:25;;;;;;;0.17;0.17;;;15.30;99.90;;;;;;5013102;28;20037;-86
2022/08/21 04:38:50;;;;;;;0.20;0.20;;;15.20;99.90;;;;;;4996259;28;20103;-87
2022/08/21 04:41:16;;;;;;;0.20;0.20;;;15.20;99.90;;;;;;5026615;28;20397;-87
2022/08/21 04:43:42;;;;;;;0.10;0.10;;;15.20;99.90;;;;;;5014532;28;20050;-88
2022/08/21 04:46:08;;;;;;;0.15;0.15;;;15.20;99.90;;;;;;5013135;28;20508;-86
2022/08/21 04:48:34;;;;;;;0.20;0.20;;;15.20;99.90;;;;;;5011650;28;20041;-87
2022/08/21 04:51:12;;;;;;;0.20;0.20;;;15.20;99.90;;;;;;5014472;28;20705;-90
2022/08/21 04:53:43;;;;;;;0.20;0.20;;;15.20;99.90;;;;;;5014907;28;20134;-86
2022/08/21 04:56:15;;;;;;;0.10;0.10;;;15.20;99.90;;;;;;5031165;28;20038;-86
2022/08/21 04:58:42;;;;;;;0.20;0.20;;;15.20;99.90;;;;;;5011495;28;20064;-86
2022/08/21 05:01:12;;;;;;;0.20;0.20;;;15.20;99.90;;;;;;5032327;28;20200;-86
2022/08/21 05:03:38;;;;;;;0.20;0.20;;;15.30;99.90;;;;;;5012208;28;20049;-86
2022/08/21 05:06:07;;;;;;;0.10;0.10;;;15.30;99.90;;;;;;5029940;28;20041;-86
2022/08/21 05:08:33;;;;;;;0.10;0.10;;;15.30;99.90;;;;;;5014502;28;20152;-86
2022/08/21 05:10:59;;;;;;;0.20;0.20;;;15.30;99.90;;;;;;5031908;28;20052;-87
2022/08/21 05:13:25;;;;;;;0.20;0.20;;;15.40;99.90;;;;;;5013588;28;20045;-87
2022/08/21 05:15:51;;;;;;;0.20;0.20;;;15.40;99.90;;;;;;5030089;28;20125;-86
2022/08/21 05:18:16;;;;;;;0.20;0.20;;;15.40;99.90;;;;;;5021446;28;20057;-87
2022/08/21 05:20:44;;;;;;;0.10;0.10;;;15.40;99.90;;;;;;5037134;28;20113;-86
2022/08/21 05:23:12;;;;;;;0.20;0.20;;;15.40;99.90;;;;;;5022319;28;20054;-86
2022/08/21 05:25:39;;;;;;;0.20;0.20;;;15.40;99.90;;;;;;5012415;28;20053;-88
2022/08/21 05:28:06;;;;;;;0.20;0.20;;;15.40;99.90;;;;;;5010269;28;20057;-87
2022/08/21 05:30:32;;;;;;;0.20;0.20;;;15.50;99.90;;;;;;5021098;28;20136;-87
2022/08/21 05:33:00;;;;;;;0.17;0.17;;;15.50;99.90;;;;;;5018357;28;20044;-89
2022/08/21 05:35:30;;;;;;;0.10;0.10;;;15.60;99.90;;;;;;5039392;28;20046;-91
2022/08/21 05:37:56;;;;;;;0.10;0.10;;;15.60;99.90;;;;;;5036188;28;20401;-88
2022/08/21 05:40:22;;;;;;;0.10;0.10;;;15.60;99.90;;;;;;5036417;28;20041;-87
2022/08/21 05:42:49;;;;;;;0.20;0.20;;;15.60;99.90;;;;;;5037018;28;20049;-87
2022/08/21 05:45:15;;;;;;;0.20;0.20;;;15.70;99.90;;;;;;5062015;28;20041;-86
2022/08/21 05:47:41;;;;;;;0.10;0.10;;;15.80;99.90;;;;;;5043027;28;20048;-90
2022/08/21 05:50:09;;;;;;;0.20;0.20;;;15.80;99.90;;;;;;5037255;28;20038;-87
2022/08/21 05:52:35;;;;;;;0.20;0.20;;;15.90;99.90;;;;;;4998687;28;20125;-89
2022/08/21 05:55:01;;;;;;;0.20;0.20;;;15.90;99.90;;;;;;5023743;28;20124;-91
2022/08/21 05:57:27;;;;;;;0.20;0.20;;;16.00;99.90;;;;;;5017124;28;20050;-88
2022/08/21 05:59:52;;;;;;;0.10;0.10;;;16.10;99.90;;;;;;5034999;28;20042;-88
2022/08/21 06:02:19;;;;;;;0.20;0.20;;;16.10;99.90;;;;;;5032614;28;20042;-88
2022/08/21 06:04:45;;;;;;;0.10;0.10;;;16.20;99.90;;;;;;5017161;28;20490;-86
2022/08/21 06:07:11;;;;;;;0.10;0.10;;;16.20;99.90;;;;;;5009283;28;20497;-87
2022/08/21 06:09:37;;;;;;;0.20;0.20;;;16.30;99.90;;;;;;4998065;28;20050;-88
2022/08/21 06:12:11;;;;;;;0.20;0.20;;;16.40;99.90;;;;;;5015525;28;20122;-89
2022/08/21 06:14:39;;;;;;;0.20;0.20;;;16.50;99.90;;;;;;4998943;28;20159;-93
2022/08/21 06:17:07;;;;;;;0.10;0.10;;;16.60;99.90;;;;;;4999999;28;20056;-92
2022/08/21 06:19:33;;;;;;;0.10;0.10;;;16.60;99.90;;;;;;5021064;28;20482;-89
2022/08/21 06:21:59;;;;;;;0.10;0.10;;;16.70;99.90;;;;;;5022214;28;20084;-94
2022/08/21 06:24:25;;;;;;;0.20;0.20;;;16.70;99.90;;;;;;5022160;28;20041;-89
2022/08/21 06:26:51;;;;;;;0.20;0.20;;;16.90;99.90;;;;;;5033015;28;20065;-88
2022/08/21 06:29:17;;;;;;;0.17;0.17;;;16.90;99.90;;;;;;5037946;28;20055;-87
2022/08/21 06:31:43;;;;;;;0.10;0.10;;;17.00;99.90;;;;;;5026221;28;20132;-90
2022/08/21 06:34:10;;;;;;;0.20;0.20;;;17.10;99.90;;;;;;5037501;28;20053;-86
2022/08/21 06:36:36;;;;;;;0.10;0.10;;;17.10;99.90;;;;;;5015006;28;20065;-88
2022/08/21 06:39:02;;;;;;;0.20;0.20;;;17.10;99.90;;;;;;5008160;28;20072;-87
2022/08/21 06:41:28;;;;;;;0.10;0.10;;;17.30;99.90;;;;;;5014765;28;20037;-92
2022/08/21 06:43:55;;;;;;;0.20;0.20;;;17.30;99.90;;;;;;5040936;28;20037;-88
2022/08/21 06:46:26;;;;;;;0.20;0.20;;;17.40;99.90;;;;;;5017370;28;20452;-92
2022/08/21 06:48:51;;;;;;;0.20;0.20;;;17.50;99.90;;;;;;5034164;28;20046;-88
2022/08/21 06:51:17;;;;;;;0.13;0.13;;;17.50;99.90;;;;;;5001320;28;20132;-88
2022/08/21 06:53:43;;;;;;;0.10;0.10;;;17.50;99.90;;;;;;5038440;28;20042;-90
2022/08/21 06:56:09;;;;;;;0.85;0.30;;;17.60;99.90;;;;;;5032253;28;20132;-92
2022/08/21 06:58:34;;;;;;;0.10;0.10;;;17.70;99.90;;;;;;5019187;28;20060;-90
2022/08/21 07:01:00;;;;;;;0.20;0.20;;;17.60;99.90;;;;;;5021792;28;20068;-90
2022/08/21 07:03:35;;;;;;;0.20;0.20;;;17.70;99.90;;;;;;5032983;28;20042;-89
2022/08/21 07:06:01;;;;;;;0.20;0.20;;;17.80;99.90;;;;;;5017667;28;20060;-87
2022/08/21 07:08:28;;;;;;;0.20;0.20;;;17.80;99.90;;;;;;5035220;28;20034;-92
2022/08/21 07:10:56;;;;;;;0.20;0.20;;;17.90;99.90;;;;;;5017814;28;20511;-89
2022/08/21 07:13:22;;;;;;;0.10;0.10;;;17.90;99.90;;;;;;5016776;28;20044;-91
2022/08/21 07:15:48;;;;;;;0.10;0.10;;;17.90;99.90;;;;;;5029362;28;20042;-88
2022/08/21 07:18:14;;;;;;;0.20;0.20;;;18.00;99.90;;;;;;5022125;28;20041;-90
2022/08/21 07:20:40;;;;;;;0.20;0.20;;;18.00;99.90;;;;;;5034584;28;20033;-89
2022/08/21 07:23:10;;;;;;;0.10;0.10;;;18.10;99.90;;;;;;5026566;28;20517;-91
2022/08/21 07:25:36;;;;;;;0.20;0.20;;;18.10;99.90;;;;;;5010810;28;20561;-90
2022/08/21 07:28:02;;;;;;;0.20;0.20;;;18.20;99.90;;;;;;5015076;28;20089;-90
2022/08/21 07:30:27;;;;;;;0.15;0.15;;;18.20;99.90;;;;;;5019238;28;20072;-92
2022/08/21 07:32:53;;;;;;;0.10;0.10;;;18.40;99.90;;;;;;5052208;28;20033;-92
2022/08/21 07:35:21;;;;;;;0.20;0.20;;;18.40;99.90;;;;;;5026140;28;20374;-88
2022/08/21 07:37:52;;;;;;;0.10;0.10;;;18.40;99.90;;;;;;5017216;28;20409;-94
2022/08/21 07:40:19;;;;;;;0.20;0.20;;;18.50;99.90;;;;;;5015130;28;20051;-88
2022/08/21 07:42:47;;;;;;;0.20;0.20;;;18.60;99.90;;;;;;5017589;28;20063;-89
2022/08/21 07:45:13;;;;;;;0.10;0.10;;;18.60;99.90;;;;;;5017927;28;20052;-92
2022/08/21 07:47:39;;;;;;;0.20;0.20;;;18.70;99.90;;;;;;5012286;28;20516;-93
2022/08/21 07:50:07;;;;;;;0.10;0.10;;;18.70;99.90;;;;;;5019728;28;20049;-89
2022/08/21 07:52:33;;;;;;;0.17;0.17;;;18.80;99.90;;;;;;5036317;28;20041;-93
2022/08/21 07:54:59;;;;;;;0.20;0.20;;;18.80;99.90;;;;;;5036527;28;20049;-92
2022/08/21 07:57:25;;;;;;;0.20;0.20;;;18.90;99.90;;;;;;5037860;28;20478;-94
2022/08/21 07:59:51;;;;;;;0.20;0.20;;;19.00;99.90;;;;;;5032401;28;20100;-93
2022/08/21 08:02:27;;;;;;;0.20;0.20;;;19.00;99.90;;;;;;5024593;28;20042;-92
2022/08/21 08:04:58;;;;;;;0.20;0.20;;;19.00;99.90;;;;;;5027435;28;20053;-91
2022/08/21 08:07:23;;;;;;;0.20;0.20;;;19.10;99.90;;;;;;5006883;28;20116;-87
2022/08/21 08:09:49;;;;;;;0.20;0.20;;;19.10;99.90;;;;;;5009200;28;20140;-92
2022/08/21 08:12:15;;;;;;;0.20;0.20;;;19.20;99.90;;;;;;5018629;28;20078;-90
2022/08/21 08:14:40;;;;;;;0.20;0.20;;;19.30;99.90;;;;;;5036821;28;20068;-87
2022/08/21 08:17:06;;;;;;;0.20;0.20;;;19.30;99.90;;;;;;5019905;28;20133;-92
2022/08/21 08:19:32;;;;;;;0.10;0.10;;;19.40;99.90;;;;;;5035801;28;20041;-92
2022/08/21 08:21:57;;;;;;;0.20;0.20;;;19.40;99.90;;;;;;5020765;28;20045;-89
2022/08/21 08:24:23;;;;;;;0.10;0.10;;;19.50;99.90;;;;;;5028412;28;20320;-91
2022/08/21 08:26:49;;;;;;;0.20;0.20;;;19.60;99.90;;;;;;5038964;28;20052;-92
2022/08/21 08:29:14;;;;;;;0.20;0.20;;;19.70;99.90;;;;;;5038014;28;20106;-95
2022/08/21 08:31:40;;;;;;;0.20;0.20;;;19.70;99.90;;;;;;5020462;28;20049;-91
2022/08/21 08:34:05;;;;;;;0.13;0.13;;;19.70;99.90;;;;;;5020993;28;20401;-92
2022/08/21 08:36:36;;;;;;;0.20;0.20;;;19.80;99.90;;;;;;5036995;28;20079;-93
2022/08/21 08:39:04;;;;;;;0.20;0.20;;;19.90;99.90;;;;;;4998424;28;20042;-92
2022/08/21 08:41:33;;;;;;;0.20;0.20;;;19.90;99.90;;;;;;5017432;28;20038;-94
2022/08/21 08:44:04;;;;;;;0.20;0.20;;;20.00;99.90;;;;;;5009960;28;20046;-92
2022/08/21 08:46:39;;;;;;;0.10;0.10;;;20.10;99.90;;;;;;5002762;28;20453;-94
2022/08/21 08:49:20;;;;;;;0.20;0.20;;;20.20;99.90;;;;;;4999665;28;20049;-93
2022/08/21 08:51:54;;;;;;;;;;;20.30;99.90;;;;;;5016093;28;20113;-95
2022/08/21 08:54:35;;;;;;;0.20;0.20;;;20.30;99.90;;;;;;5017823;28;19921;-95
2022/08/21 08:57:06;;;;;;;0.20;0.20;;;20.40;99.90;;;;;;4999315;28;20065;-93
2022/08/21 08:59:46;;;;;;;0.20;0.20;;;20.40;99.90;;;;;;5016142;28;20098;-94
2022/08/21 09:02:14;;;;;;;0.20;0.20;;;20.40;99.90;;;;;;5016556;28;20122;-94
2022/08/21 09:04:40;;;;;;;0.20;0.20;;;20.50;99.90;;;;;;5020305;28;20052;-94
2022/08/21 09:07:36;;;;;;;0.20;0.20;;;20.60;99.90;;;;;;5012752;28;20053;-94
2022/08/21 09:10:30;;;;;;;0.20;0.20;;;20.60;99.90;;;;;;4989686;28;20042;-92
2022/08/21 09:13:10;;;;;;;0.20;0.20;;;20.60;99.90;;;;;;5002136;28;20049;-90
2022/08/21 09:16:07;;;;;;;0.20;0.20;;;20.70;99.90;;;;;;5018801;28;20057;-92
2022/08/21 09:18:35;;;;;;;0.20;0.20;;;20.80;99.90;;;;;;5009745;28;20061;-88
2022/08/21 09:21:17;;;;;;;0.10;0.10;;;20.80;99.90;;;;;;5032521;28;20042;-91
2022/08/21 09:24:16;;;;;;;0.20;0.20;;;20.90;99.90;;;;;;5018022;28;20053;-88
2022/08/21 09:27:10;;;;;;;0.20;0.20;;;20.90;99.90;;;;;;5006661;28;20064;-86
2022/08/21 09:29:42;;;;;;;0.20;0.20;;;20.90;99.90;;;;;;5037327;28;20049;-91
2022/08/21 09:32:29;;;;;;;0.20;0.20;;;20.90;99.90;;;;;;5036825;28;20405;-93
2022/08/21 09:35:05;;;;;;;0.20;0.20;;;21.00;99.90;;;;;;5037744;28;20045;-93
2022/08/21 09:37:34;;;;;;;0.20;0.20;;;21.10;99.90;;;;;;5019719;28;20049;-90
2022/08/21 09:40:00;;;;;;;0.20;0.20;;;21.20;99.90;;;;;;5035992;28;20493;-89
2022/08/21 09:42:31;;;;;;;0.20;0.20;;;21.20;99.90;;;;;;5019937;28;20049;-90
2022/08/21 09:45:20;;;;;;;0.30;0.30;;;21.30;99.90;;;;;;5018860;28;20184;-92
2022/08/21 09:47:49;;;;;;;0.20;0.20;;;21.40;99.90;;;;;;5039848;28;20045;-90
2022/08/21 09:50:22;;;;;;;0.20;0.20;;;21.50;99.90;;;;;;5020695;28;20099;-92
2022/08/21 09:52:58;;;;;;;0.20;0.20;;;21.50;99.90;;;;;;5039800;28;20046;-91
2022/08/21 09:58:32;;;;;;;0.20;0.20;;;21.70;99.90;;;;;;5034643;28;20041;-90
2022/08/21 10:01:03;;;;;;;0.20;0.20;;;21.80;99.90;;;;;;5058373;28;20034;-92
2022/08/21 10:03:29;;;;;;;;;;;21.80;99.90;;;;;;5036433;28;20041;-89
2022/08/21 10:05:56;;;;;;;;;;;21.80;99.90;;;;;;5036603;28;19921;-90
2022/08/21 10:08:23;;;;;;;;;;;21.90;99.90;;;;;;5018222;28;20359;-90
2022/08/21 10:10:54;;;;;;;;;;;21.90;99.90;;;;;;5036059;28;19925;-88
2022/08/21 10:13:32;;;;;;;;;;;22.00;99.90;;;;;;5036408;28;19925;-87
2022/08/21 10:15:57;;;;;;;;;;;22.00;99.90;;;;;;5035216;28;19924;-87
2022/08/21 10:18:29;;;;;;;;;;;22.10;99.90;;;;;;5018706;28;19975;-90
2022/08/21 10:21:15;;;;;;;;;;;22.20;99.90;;;;;;5018571;28;19928;-90
2022/08/21 10:23:54;;;;;;;;;;;22.20;99.90;;;;;;5035616;28;19943;-89
2022/08/21 10:26:33;;;;;;;;;;;22.30;99.90;;;;;;5035386;28;19925;-86
2022/08/21 10:29:15;;;;;;;;;;;22.30;99.90;;;;;;5035780;28;19943;-88
2022/08/21 10:31:53;;;;;;;;;;;22.30;99.90;;;;;;5019707;28;19924;-91
2022/08/21 10:34:18;;;;;;;;;;;22.30;99.90;;;;;;5018200;28;19921;-88
2022/08/21 10:37:03;;;;;;;;;;;22.30;99.90;;;;;;5017676;28;19964;-88
2022/08/21 10:39:35;;;;;;;;;;;22.40;99.90;;;;;;5015566;28;20368;-89
2022/08/21 10:42:09;;;;;;;;;;;22.40;99.90;;;;;;5015963;28;19968;-92
2022/08/21 10:44:51;;;;;;;;;;;22.40;99.90;;;;;;5016131;28;19922;-90
2022/08/21 10:47:37;;;;;;;;;;;22.30;99.90;;;;;;4998194;28;20026;-87
2022/08/21 10:50:03;;;;;;;;;;;22.30;99.90;;;;;;4998050;28;19925;-92
2022/08/21 10:52:33;;;;;;;;;;;22.30;99.90;;;;;;4997990;28;20019;-91
2022/08/21 10:55:11;;;;;;;;;;;22.30;99.90;;;;;;5015408;28;20008;-89
2022/08/21 10:57:40;;;;;;;;;;;22.20;99.90;;;;;;4998212;28;20392;-90
2022/08/21 11:00:11;;;;;;;;;;;22.20;99.90;;;;;;5016048;28;19921;-89
2022/08/21 11:02:48;;;;;;;;;;;22.10;99.90;;;;;;5016374;28;20031;-89
2022/08/21 11:05:17;;;;;;;;;;;22.00;99.90;;;;;;5032976;28;19929;-88
2022/08/21 11:07:47;;;;;;;;;;;22.00;99.90;;;;;;5004279;28;19925;-89
2022/08/21 11:10:22;;;;;;;;;;;22.00;99.90;;;;;;5014729;28;20336;-91
2022/08/21 11:12:51;;;;;;;;;;;22.00;99.90;;;;;;5000154;28;20015;-87
2022/08/21 11:15:24;;;;;;;;;;;22.00;99.90;;;;;;5015077;28;19921;-90
2022/08/21 11:17:55;;;;;;;;;;;22.00;99.90;;;;;;5018046;28;19921;-91
2022/08/21 11:20:21;;;;;;;;;;;22.00;99.90;;;;;;5016881;28;19959;-91
2022/08/21 11:22:54;;;;;;;;;;;22.00;99.90;;;;;;4997854;28;19917;-91
2022/08/21 11:25:27;;;;;;;;;;;22.10;99.90;;;;;;4997688;28;19968;-87
2022/08/21 11:27:55;;;;;;;;;;;22.30;99.90;;;;;;5016194;28;19921;-88
2022/08/21 11:30:23;;;;;;;;;;;22.50;99.90;;;;;;5027899;28;19922;-88
2022/08/21 11:32:51;;;;;;;;;;;22.60;99.90;;;;;;5020312;28;19922;-89
2022/08/21 11:35:29;;;;;;;;;;;22.70;99.90;;;;;;5018688;28;19931;-91
2022/08/21 11:38:04;;;;;;;;;;;22.90;99.90;;;;;;5014983;28;19977;-90
2022/08/21 11:40:32;;;;;;;;;;;23.10;99.90;;;;;;5013651;28;19928;-88
2022/08/21 11:43:16;;;;;;;;;;;23.10;99.90;;;;;;4997802;28;19925;-91
2022/08/21 11:45:53;;;;;;;;;;;23.20;99.90;;;;;;4997006;28;20217;-90
2022/08/21 11:48:22;;;;;;;;;;;23.30;99.90;;;;;;5015109;28;19921;-94
2022/08/21 11:50:49;;;;;;;;;;;23.40;99.90;;;;;;5014733;28;20023;-91
2022/08/21 11:53:17;;;;;;;;;;;23.40;99.90;;;;;;5022070;28;20373;-88
2022/08/21 11:55:47;;;;;;;;;;;23.60;99.90;;;;;;4999674;28;19921;-92
2022/08/21 11:58:18;;;;;;;;;;;23.70;99.90;;;;;;5015191;28;20016;-92
2022/08/21 12:00:48;;;;;;;;;;;23.80;99.90;;;;;;4999026;28;19921;-92
2022/08/21 12:03:15;;;;;;;;;;;23.90;99.90;;;;;;5015876;28;20023;-89
2022/08/21 12:05:43;;;;;;;;;;;23.80;99.90;;;;;;5007657;28;19927;-92
2022/08/21 12:08:08;;;;;;;;;;;23.70;99.90;;;;;;5016629;28;19929;-91
2022/08/21 12:10:39;;;;;;;;;;;23.60;99.90;;;;;;5034259;28;19928;-90
2022/08/21 12:13:08;;;;;;;;;;;23.60;99.90;;;;;;5035492;28;20020;-91
2022/08/21 12:15:33;;;;;;;;;;;23.50;99.90;;;;;;5034499;28;19921;-90
2022/08/21 12:18:02;;;;;;;;;;;23.50;99.90;;;;;;5035177;28;20441;-92
2022/08/21 12:20:36;;;;;;;;;;;23.60;99.90;;;;;;5016630;28;19925;-92
2022/08/21 12:23:03;;;;;;;;;;;23.90;99.90;;;;;;5034448;28;19921;-90
2022/08/21 12:25:40;;;;;;;;;;;24.20;99.90;;;;;;5033313;28;19982;-93
2022/08/21 12:28:08;;;;;;;;;;;24.30;99.90;;;;;;5033922;28;19925;-91
2022/08/21 12:30:35;;;;;;;;;;;24.60;99.90;;;;;;5017978;28;19928;-93
2022/08/21 12:33:02;;;;;;;;;;;24.90;99.90;;;;;;5034760;28;19972;-91
2022/08/21 12:35:32;;;;;;;;;;;24.90;99.90;;;;;;5019335;28;19924;-93
2022/08/21 12:38:16;;;;;;;;;;;25.00;99.90;;;;;;5018327;28;19925;-95
2022/08/21 12:41:02;;;;;;;;;;;24.90;99.90;;;;;;5020378;28;19963;-92
2022/08/21 12:43:35;;;;;;;;;;;25.00;99.90;;;;;;5019391;28;19928;-91
2022/08/21 12:46:04;;;;;;;;;;;25.00;99.90;;;;;;5038534;28;19927;-89
2022/08/21 12:48:42;;;;;;;;;;;24.90;99.90;;;;;;5042738;28;19984;-88
2022/08/21 12:51:10;;;;;;;;;;;24.80;99.90;;;;;;5037586;28;19925;-89
2022/08/21 12:53:47;;;;;;;;;;;24.70;99.90;;;;;;5019894;28;20384;-87
2022/08/21 12:56:14;;;;;;;;;;;24.60;99.80;;;;;;5019388;28;19921;-88
2022/08/21 12:58:41;;;;;;;;;;;24.50;99.60;;;;;;5020562;28;19982;-89
2022/08/21 13:01:13;;;;;;;;;;;24.40;99.90;;;;;;5037708;28;19967;-88
2022/08/21 13:03:40;;;;;;;;;;;24.30;99.90;;;;;;5057689;28;19943;-88
2022/08/21 13:06:06;;;;;;;;;;;24.30;99.80;;;;;;5057322;28;19921;-91
2022/08/21 13:08:34;;;;;;;;;;;24.20;99.90;;;;;;5038519;28;19988;-90
2022/08/21 13:11:01;;;;;;;;;;;24.10;99.90;;;;;;5037387;28;19987;-93
2022/08/21 13:13:28;;;;;;;;;;;24.10;99.50;;;;;;5021336;28;19929;-91
2022/08/21 13:15:58;;;;;;;;;;;24.00;99.60;;;;;;5039578;28;19943;-90
2022/08/21 13:18:25;;;;;;;;;;;23.90;99.70;;;;;;5040537;28;19921;-94
2022/08/21 13:20:51;;;;;;;;;;;23.90;99.70;;;;;;5020041;28;20024;-93